Morningside, Maryland
Current Conditions -  °F | °C
As of 9:58 PM on Friday 21 Nov 2014 (Local Time) from KADW Reporting Station
Clear Clear  
Wind Chill: 23°   Ceiling: Unl
Heat Index: 23°   Visibility: 10mi
Dew Point: 13°   Wind: 0mph
Humidity: 66%   Direction: NA
Pressure: 30.55"   Gusts: NA
Location:  38.8377°N, 76.9193°W
Report Text: KADW 220258Z AUTO 00000KT 10SM CLR M05/M10 A3055 RMK AO2 SLP356 T10501105 53005 $
Loading
Personal Weather Stations






























Interactive Weather Map New forecast layout! Learn more

10-Day Weather Forecast

Advertisements
Track Severe Weather on mobile